Time;durP1;ratioP1;P1;durP2;ratioP2;P2;SDS_P1;SDS_P2;PMS_P1;PMS_P2;Temp;Humidity;BMP_temperature;BMP_pressure;BME280_temperature;BME280_humidity;BME280_pressure;Samples;Min_cycle;Max_cycle;Signal;HPM_P1;HPM_P2
2023/12/29 00:01:45;;;;;;;3.60;3.30;;;8.90;1.00;;;;;;5114364;28;20690;-44
2023/12/29 00:04:10;;;;;;;3.73;3.43;;;8.90;1.00;;;;;;5116610;28;20176;-42
2023/12/29 00:06:40;;;;;;;3.30;2.97;;;8.90;1.00;;;;;;5117256;28;20251;-43
2023/12/29 00:09:05;;;;;;;3.20;2.90;;;8.90;1.00;;;;;;5118136;28;20581;-42
2023/12/29 00:11:31;;;;;;;3.40;3.10;;;8.90;1.00;;;;;;5118580;28;20493;-44
2023/12/29 00:13:56;;;;;;;4.97;4.27;;;8.90;1.00;;;;;;5119184;28;20252;-43
2023/12/29 00:16:22;;;;;;;4.33;3.70;;;8.80;1.00;;;;;;5119553;28;20265;-45
2023/12/29 00:18:47;;;;;;;4.30;3.90;;;8.80;1.00;;;;;;5119593;28;20482;-46
2023/12/29 00:21:13;;;;;;;4.97;3.83;;;8.70;1.00;;;;;;5118556;28;20431;-43
2023/12/29 00:23:39;;;;;;;5.67;4.00;;;8.80;1.00;;;;;;5117248;28;20191;-42
2023/12/29 00:26:04;;;;;;;4.63;3.93;;;8.80;1.00;;;;;;5116960;28;20565;-42
2023/12/29 00:28:30;;;;;;;6.20;4.00;;;8.70;1.00;;;;;;5116956;28;20849;-44
2023/12/29 00:30:55;;;;;;;3.73;3.03;;;8.70;1.00;;;;;;5116840;28;20211;-43
2023/12/29 00:33:21;;;;;;;3.57;3.20;;;8.70;1.00;;;;;;5116388;28;20211;-44
2023/12/29 00:35:46;;;;;;;5.83;3.90;;;8.70;1.00;;;;;;5114916;28;20172;-45
2023/12/29 00:38:12;;;;;;;4.03;3.70;;;8.70;1.00;;;;;;5113068;28;20203;-46
2023/12/29 00:40:38;;;;;;;5.20;3.70;;;8.60;1.00;;;;;;5115731;28;20241;-42
2023/12/29 00:43:03;;;;;;;4.47;3.97;;;8.60;1.00;;;;;;5116104;28;20423;-44
2023/12/29 00:45:36;;;;;;;3.97;3.60;;;8.70;1.00;;;;;;5117557;28;20253;-44
2023/12/29 00:48:02;;;;;;;4.50;3.50;;;8.70;1.00;;;;;;5117322;28;20478;-44
2023/12/29 00:50:27;;;;;;;3.90;3.60;;;8.70;99.90;;;;;;5115566;28;20528;-43
2023/12/29 00:52:53;;;;;;;5.63;4.10;;;8.70;1.00;;;;;;5117913;28;20576;-43
2023/12/29 00:55:19;;;;;;;4.10;3.70;;;8.60;1.00;;;;;;5117228;28;20175;-43
2023/12/29 00:57:44;;;;;;;4.97;3.80;;;8.60;1.00;;;;;;5117181;28;20381;-46
2023/12/29 01:00:12;;;;;;;4.03;3.63;;;8.60;1.00;;;;;;5117043;28;20420;-42
2023/12/29 01:02:40;;;;;;;4.27;3.87;;;8.60;1.00;;;;;;5118686;28;20364;-44
2023/12/29 01:05:06;;;;;;;4.40;3.97;;;8.60;1.00;;;;;;5118451;28;20459;-46
2023/12/29 01:07:32;;;;;;;4.23;3.83;;;8.60;1.00;;;;;;5117898;27;20536;-45
2023/12/29 01:09:57;;;;;;;5.23;4.27;;;8.60;1.00;;;;;;5117401;28;20571;-43
2023/12/29 01:12:23;;;;;;;4.47;4.07;;;8.60;99.90;;;;;;5116746;28;20270;-46
2023/12/29 01:14:48;;;;;;;5.77;4.63;;;8.60;99.90;;;;;;5115005;28;20435;-44
2023/12/29 01:17:14;;;;;;;4.67;4.27;;;8.70;99.90;;;;;;5114784;28;20179;-45
2023/12/29 01:19:39;;;;;;;4.90;4.40;;;8.70;99.90;;;;;;5113559;28;20190;-45
2023/12/29 01:22:05;;;;;;;4.30;3.37;;;8.80;99.90;;;;;;5114844;28;20286;-41
2023/12/29 01:24:30;;;;;;;5.27;4.47;;;8.70;99.90;;;;;;5114682;28;20197;-43
2023/12/29 01:26:56;;;;;;;4.53;4.03;;;8.80;99.90;;;;;;5113669;28;20176;-45
2023/12/29 01:29:21;;;;;;;4.40;4.00;;;8.80;55.30;;;;;;5114887;28;20298;-46
2023/12/29 01:31:47;;;;;;;4.37;3.97;;;8.80;9.90;;;;;;5116933;28;20176;-44
2023/12/29 01:34:13;;;;;;;4.90;4.43;;;8.80;44.40;;;;;;5115118;28;20508;-45
2023/12/29 01:36:39;;;;;;;4.10;3.70;;;8.80;4.80;;;;;;5115250;28;20269;-46
2023/12/29 01:39:04;;;;;;;5.20;4.70;;;8.80;18.60;;;;;;5115041;28;20429;-43
2023/12/29 01:41:30;;;;;;;4.60;4.20;;;8.90;1.00;;;;;;5116926;28;20784;-43
2023/12/29 01:44:01;;;;;;;4.80;4.30;;;8.80;11.40;;;;;;5117251;28;20568;-46
2023/12/29 01:46:32;;;;;;;4.33;3.93;;;8.80;17.60;;;;;;5117682;28;20577;-46
2023/12/29 01:48:58;;;;;;;5.60;4.80;;;8.90;1.00;;;;;;5116680;28;20995;-43
2023/12/29 01:51:25;;;;;;;7.80;4.63;;;8.80;1.00;;;;;;5116668;28;20446;-44
2023/12/29 01:53:52;;;;;;;5.00;4.60;;;8.80;50.10;;;;;;5116829;28;20441;-45
2023/12/29 01:56:17;;;;;;;5.90;5.40;;;8.80;99.90;;;;;;5117750;28;20430;-43
2023/12/29 01:58:48;;;;;;;7.00;5.37;;;8.70;99.90;;;;;;5117199;28;20781;-43
2023/12/29 02:01:14;;;;;;;7.03;4.60;;;8.70;99.90;;;;;;5116685;28;20273;-43
2023/12/29 02:03:40;;;;;;;5.20;4.70;;;8.70;99.90;;;;;;5117126;28;20414;-43
2023/12/29 02:06:06;;;;;;;5.20;4.70;;;8.70;99.90;;;;;;5117256;28;20752;-44
2023/12/29 02:08:32;;;;;;;7.00;5.50;;;8.70;99.90;;;;;;5115796;28;20260;-49
2023/12/29 02:10:57;;;;;;;5.10;4.60;;;8.70;99.90;;;;;;5117190;28;20524;-42
2023/12/29 02:13:23;;;;;;;5.20;4.40;;;8.70;99.90;;;;;;5116122;28;20180;-44
2023/12/29 02:15:52;;;;;;;4.90;4.37;;;8.80;99.90;;;;;;5116943;28;20188;-44
2023/12/29 02:18:19;;;;;;;4.50;4.10;;;8.80;99.90;;;;;;5116787;28;20184;-46
2023/12/29 02:20:44;;;;;;;4.63;4.23;;;8.70;99.90;;;;;;5116634;28;20745;-42
2023/12/29 02:23:10;;;;;;;5.10;4.60;;;8.80;99.90;;;;;;5116331;28;20429;-43
2023/12/29 02:25:36;;;;;;;5.30;4.67;;;8.70;99.90;;;;;;5116976;28;20209;-42
2023/12/29 02:28:06;;;;;;;5.40;4.90;;;8.70;99.90;;;;;;5116599;28;20206;-43
2023/12/29 02:31:13;;;;;;;5.80;5.20;;;8.70;99.90;;;;;;5114923;28;20275;-43
2023/12/29 02:33:41;;;;;;;5.10;4.60;;;8.70;99.90;;;;;;5016645;28;20511;-46
2023/12/29 02:36:06;;;;;;;8.83;5.20;;;8.70;99.90;;;;;;5016779;28;20423;-43
2023/12/29 02:38:33;;;;;;;5.40;4.90;;;8.70;1.00;;;;;;5064852;28;20429;-46
2023/12/29 02:40:58;;;;;;;5.07;4.60;;;8.70;1.00;;;;;;5114475;28;20426;-43
2023/12/29 02:43:24;;;;;;;5.80;5.20;;;8.60;1.00;;;;;;5116455;28;20491;-42
2023/12/29 02:45:50;;;;;;;6.27;5.67;;;8.60;1.00;;;;;;5098118;28;20494;-43
2023/12/29 02:48:15;;;;;;;5.90;5.40;;;8.60;1.00;;;;;;5116287;28;20199;-43
2023/12/29 02:50:41;;;;;;;5.70;5.20;;;8.60;8.50;;;;;;5115653;28;20176;-45
2023/12/29 02:53:07;;;;;;;7.50;6.10;;;8.50;49.90;;;;;;5115802;28;20249;-43
2023/12/29 02:55:32;;;;;;;6.50;5.90;;;8.50;99.90;;;;;;5116414;28;20238;-43
2023/12/29 02:57:58;;;;;;;6.17;5.67;;;8.50;99.90;;;;;;5115048;28;20417;-43
2023/12/29 03:00:23;;;;;;;8.93;5.47;;;8.50;99.90;;;;;;5119393;28;20247;-43
2023/12/29 03:02:49;;;;;;;6.00;5.30;;;8.50;99.90;;;;;;5119794;28;20183;-46
2023/12/29 03:05:15;;;;;;;5.93;4.97;;;8.50;99.90;;;;;;5120441;28;20525;-46
2023/12/29 03:07:40;;;;;;;5.77;5.27;;;8.50;99.90;;;;;;5120117;28;20519;-42
2023/12/29 03:10:07;;;;;;;6.17;5.60;;;8.50;99.90;;;;;;5120512;28;20600;-43
2023/12/29 03:12:32;;;;;;;5.40;4.90;;;8.50;99.90;;;;;;5117951;28;20278;-45
2023/12/29 03:14:58;;;;;;;6.33;5.30;;;8.50;99.90;;;;;;5118748;28;20409;-41
2023/12/29 03:17:23;;;;;;;6.37;5.77;;;8.50;99.90;;;;;;5119285;28;20562;-42
2023/12/29 03:19:49;;;;;;;9.27;5.27;;;8.70;1.00;;;;;;5119842;28;20257;-47
2023/12/29 03:22:14;;;;;;;7.50;5.67;;;9.00;99.90;;;;;;5119851;28;20183;-47
2023/12/29 03:24:42;;;;;;;5.23;4.73;;;9.30;1.00;;;;;;5118290;28;20180;-42
2023/12/29 03:27:07;;;;;;;4.83;4.40;;;9.40;99.90;;;;;;5118110;28;20201;-43
2023/12/29 03:29:33;;;;;;;5.80;5.13;;;9.20;15.10;;;;;;5117477;28;20525;-41
2023/12/29 03:31:58;;;;;;;5.27;4.77;;;9.00;89.80;;;;;;5118712;28;20176;-42
2023/12/29 03:34:24;;;;;;;5.73;5.23;;;8.90;99.90;;;;;;5118327;28;20460;-41
2023/12/29 03:36:49;;;;;;;6.43;4.63;;;8.70;99.90;;;;;;5118761;28;20267;-44
2023/12/29 03:39:15;;;;;;;5.70;4.60;;;8.70;99.90;;;;;;5119477;28;20168;-44
2023/12/29 03:41:40;;;;;;;4.97;4.40;;;8.70;99.90;;;;;;5119815;28;20184;-42
2023/12/29 03:44:06;;;;;;;6.07;5.03;;;8.70;99.90;;;;;;5119859;28;20255;-43
2023/12/29 03:46:32;;;;;;;6.03;5.30;;;8.60;99.90;;;;;;5118589;28;20437;-42
2023/12/29 03:48:58;;;;;;;7.50;4.83;;;8.50;99.90;;;;;;5119812;28;20211;-40
2023/12/29 03:51:24;;;;;;;5.90;4.50;;;8.50;99.90;;;;;;5119440;28;20472;-46
2023/12/29 03:53:49;;;;;;;6.27;4.90;;;8.50;99.90;;;;;;5119841;28;20541;-42
2023/12/29 03:56:16;;;;;;;5.53;5.03;;;8.40;99.90;;;;;;5119947;28;20176;-45
2023/12/29 03:58:42;;;;;;;5.00;4.60;;;8.40;99.90;;;;;;5119380;28;20279;-43
2023/12/29 04:01:12;;;;;;;5.50;5.00;;;8.30;99.90;;;;;;5117105;28;20456;-44
2023/12/29 04:03:38;;;;;;;5.40;4.90;;;8.20;1.00;;;;;;5119817;27;20414;-42
2023/12/29 04:06:04;;;;;;;4.97;4.47;;;8.20;1.00;;;;;;5117574;28;20469;-44
2023/12/29 04:08:29;;;;;;;5.80;4.50;;;8.20;1.00;;;;;;5117202;28;20497;-43
2023/12/29 04:10:55;;;;;;;4.20;3.80;;;8.20;1.00;;;;;;5116996;28;20442;-42
2023/12/29 04:13:20;;;;;;;6.13;4.50;;;8.30;1.00;;;;;;5117919;28;20206;-41
2023/12/29 04:15:46;;;;;;;4.60;4.20;;;8.30;1.00;;;;;;5117432;28;20172;-43
2023/12/29 04:18:11;;;;;;;4.47;4.07;;;8.30;1.00;;;;;;5118035;28;20232;-42
2023/12/29 04:20:37;;;;;;;5.10;4.60;;;8.30;1.00;;;;;;5117934;28;20607;-41
2023/12/29 04:23:03;;;;;;;5.67;4.97;;;8.30;1.00;;;;;;5119239;28;20180;-46
2023/12/29 04:25:29;;;;;;;6.10;4.87;;;8.30;1.00;;;;;;5117968;28;20175;-48
2023/12/29 04:27:54;;;;;;;5.20;4.67;;;8.40;1.00;;;;;;5118781;28;20421;-50
2023/12/29 04:30:20;;;;;;;5.23;4.73;;;8.30;1.00;;;;;;5116746;28;20310;-45
2023/12/29 04:32:45;;;;;;;5.00;4.50;;;8.30;1.00;;;;;;5117494;28;20175;-43
2023/12/29 04:35:12;;;;;;;4.57;4.10;;;8.30;1.00;;;;;;5117593;28;20630;-42
2023/12/29 04:37:38;;;;;;;5.50;5.00;;;8.30;1.00;;;;;;5117769;28;20183;-43
2023/12/29 04:40:05;;;;;;;4.80;4.40;;;8.30;1.00;;;;;;5116048;28;20676;-42
2023/12/29 04:42:30;;;;;;;4.93;4.40;;;8.30;1.00;;;;;;5115899;28;20168;-42
2023/12/29 04:44:56;;;;;;;5.10;4.60;;;8.30;1.00;;;;;;5116586;28;20445;-42
2023/12/29 04:47:21;;;;;;;5.07;4.60;;;8.30;1.00;;;;;;5116313;28;20244;-44
2023/12/29 04:49:47;;;;;;;6.67;4.70;;;8.30;1.00;;;;;;5116121;28;20238;-43
2023/12/29 04:52:12;;;;;;;6.07;5.47;;;8.20;1.00;;;;;;5116240;28;20292;-41
2023/12/29 04:54:38;;;;;;;5.57;4.70;;;8.20;1.00;;;;;;5116028;28;20168;-43
2023/12/29 04:57:04;;;;;;;5.80;5.20;;;8.20;1.00;;;;;;5116590;28;20236;-44
2023/12/29 04:59:29;;;;;;;6.00;5.20;;;8.20;1.00;;;;;;5116290;28;20175;-42
2023/12/29 05:01:55;;;;;;;4.80;3.90;;;8.20;1.00;;;;;;5116434;28;20498;-42
2023/12/29 05:04:21;;;;;;;5.87;5.30;;;8.10;1.00;;;;;;5117120;28;20268;-41
2023/12/29 05:06:46;;;;;;;5.13;4.63;;;8.20;1.00;;;;;;5116120;28;20191;-44
2023/12/29 05:09:12;;;;;;;5.80;5.30;;;8.20;1.00;;;;;;5115997;28;20203;-42
2023/12/29 05:11:37;;;;;;;5.30;4.67;;;8.20;1.00;;;;;;5116133;28;20184;-43
2023/12/29 05:14:03;;;;;;;5.10;4.60;;;8.20;1.00;;;;;;5116759;28;20259;-42
2023/12/29 05:16:28;;;;;;;5.33;4.83;;;8.20;1.00;;;;;;5115268;28;20179;-41
2023/12/29 05:18:54;;;;;;;4.73;4.23;;;8.20;1.00;;;;;;5115380;28;20175;-41
2023/12/29 05:21:20;;;;;;;4.93;4.53;;;8.20;1.00;;;;;;5115735;28;20179;-43
2023/12/29 05:23:47;;;;;;;5.77;5.20;;;8.20;1.00;;;;;;5115222;28;20438;-42
2023/12/29 05:26:14;;;;;;;5.40;4.60;;;8.30;1.00;;;;;;5115107;28;20425;-41
2023/12/29 05:28:39;;;;;;;4.97;4.47;;;8.30;1.00;;;;;;5114836;28;20854;-41
2023/12/29 05:31:05;;;;;;;8.53;4.90;;;8.30;1.00;;;;;;5114658;28;20450;-41
2023/12/29 05:33:31;;;;;;;5.13;4.73;;;8.30;1.00;;;;;;5114980;28;20561;-40
2023/12/29 05:35:57;;;;;;;5.03;4.33;;;8.30;1.00;;;;;;5115465;28;20174;-41
2023/12/29 05:38:22;;;;;;;6.87;5.37;;;8.30;1.00;;;;;;5114144;28;20426;-41
2023/12/29 05:40:48;;;;;;;5.33;4.50;;;8.30;1.00;;;;;;5115373;28;20441;-41
2023/12/29 05:43:15;;;;;;;5.73;5.20;;;8.30;1.00;;;;;;5116688;28;20431;-41
2023/12/29 05:45:40;;;;;;;4.70;4.30;;;8.40;1.00;;;;;;5116295;28;20168;-41
2023/12/29 05:48:06;;;;;;;4.57;3.90;;;8.40;1.00;;;;;;5115584;28;20402;-44
2023/12/29 05:50:32;;;;;;;6.23;4.40;;;8.40;1.00;;;;;;5115442;28;20343;-44
2023/12/29 05:52:58;;;;;;;4.70;4.30;;;8.40;1.00;;;;;;5115394;28;20821;-40
2023/12/29 05:55:23;;;;;;;5.43;4.33;;;8.40;1.00;;;;;;5116588;28;20187;-42
2023/12/29 05:57:49;;;;;;;4.43;4.03;;;8.40;1.00;;;;;;5116111;28;20277;-42
2023/12/29 06:00:15;;;;;;;4.10;3.73;;;8.50;1.00;;;;;;5115958;28;20191;-41
2023/12/29 06:02:41;;;;;;;4.63;4.10;;;8.50;1.00;;;;;;5114122;28;20292;-41
2023/12/29 06:05:08;;;;;;;5.13;4.63;;;8.50;1.00;;;;;;5114794;28;20430;-40
2023/12/29 06:07:34;;;;;;;4.27;3.70;;;8.50;1.00;;;;;;5115476;28;20436;-45
2023/12/29 06:09:59;;;;;;;4.40;4.00;;;8.50;1.00;;;;;;5114141;28;20469;-40
2023/12/29 06:12:25;;;;;;;4.23;3.83;;;8.50;1.00;;;;;;5114353;28;20199;-41
2023/12/29 06:14:50;;;;;;;4.67;4.27;;;8.50;1.00;;;;;;5115337;28;20175;-42
2023/12/29 06:17:16;;;;;;;4.53;4.13;;;8.50;1.00;;;;;;5114962;28;20241;-43
2023/12/29 06:19:42;;;;;;;7.30;4.37;;;8.40;1.00;;;;;;5114590;28;20251;-41
2023/12/29 06:22:11;;;;;;;6.20;3.67;;;8.50;1.00;;;;;;5114966;28;20669;-43
2023/12/29 06:24:37;;;;;;;4.23;3.77;;;8.50;1.00;;;;;;5115101;28;20168;-42
2023/12/29 06:27:03;;;;;;;4.57;4.17;;;8.40;1.00;;;;;;5115409;28;20768;-41
2023/12/29 06:29:29;;;;;;;4.70;4.30;;;8.50;1.00;;;;;;5113587;28;20491;-42
2023/12/29 06:31:54;;;;;;;5.17;4.30;;;8.40;1.00;;;;;;5112671;28;20425;-41
2023/12/29 06:34:20;;;;;;;4.47;4.07;;;8.40;1.00;;;;;;5113040;28;20179;-42
2023/12/29 06:36:45;;;;;;;4.50;4.10;;;8.40;1.00;;;;;;5113845;28;20664;-42
2023/12/29 06:39:11;;;;;;;4.10;3.60;;;8.40;1.00;;;;;;5115494;28;20179;-43
2023/12/29 06:41:37;;;;;;;5.50;4.50;;;8.40;1.00;;;;;;5115377;28;20190;-43
2023/12/29 06:44:02;;;;;;;4.60;4.20;;;8.40;1.00;;;;;;5114751;28;20188;-43
2023/12/29 06:46:28;;;;;;;5.17;4.10;;;8.50;1.00;;;;;;5114133;28;20458;-43
2023/12/29 06:48:54;;;;;;;4.50;4.10;;;8.50;1.00;;;;;;5114062;28;20574;-43
2023/12/29 06:51:19;;;;;;;4.80;4.07;;;8.50;1.00;;;;;;5114081;28;20229;-41
2023/12/29 06:53:46;;;;;;;4.27;3.87;;;8.50;1.00;;;;;;5114692;28;20274;-42
2023/12/29 06:56:14;;;;;;;3.70;3.40;;;8.50;1.00;;;;;;5114990;28;20183;-41
2023/12/29 06:58:39;;;;;;;4.00;3.60;;;8.50;1.00;;;;;;5115069;28;20426;-46
2023/12/29 07:01:05;;;;;;;4.83;4.33;;;8.50;1.00;;;;;;5115611;28;20555;-44
2023/12/29 07:03:30;;;;;;;4.43;4.03;;;8.50;1.00;;;;;;5115122;28;20594;-42
2023/12/29 07:05:56;;;;;;;4.87;3.80;;;8.50;1.00;;;;;;5115356;28;20435;-42
2023/12/29 07:08:22;;;;;;;4.57;3.97;;;8.50;1.00;;;;;;5097752;28;20196;-42
2023/12/29 07:10:50;;;;;;;4.13;3.70;;;8.50;1.00;;;;;;5116527;28;20528;-42
2023/12/29 07:13:16;;;;;;;4.00;3.60;;;8.50;1.00;;;;;;5097329;28;20192;-43
2023/12/29 07:15:41;;;;;;;4.60;4.20;;;8.50;1.00;;;;;;5096930;28;20413;-43
2023/12/29 07:18:07;;;;;;;4.00;3.60;;;8.50;1.00;;;;;;5114428;28;20418;-45
2023/12/29 07:20:32;;;;;;;3.70;3.40;;;8.50;1.00;;;;;;5115135;28;20301;-41
2023/12/29 07:22:58;;;;;;;4.90;4.30;;;8.40;1.00;;;;;;5115500;28;20224;-43
2023/12/29 07:25:23;;;;;;;4.30;3.93;;;8.50;1.00;;;;;;5114486;28;20229;-43
2023/12/29 07:27:49;;;;;;;3.70;3.40;;;8.50;1.00;;;;;;5115682;28;20524;-41
2023/12/29 07:30:15;;;;;;;4.30;3.90;;;8.50;1.00;;;;;;5115439;28;20192;-43
2023/12/29 07:32:41;;;;;;;4.07;3.67;;;8.50;1.00;;;;;;5116093;28;20195;-45
2023/12/29 07:35:07;;;;;;;4.50;3.63;;;8.60;1.00;;;;;;5115510;28;20459;-45
2023/12/29 07:37:32;;;;;;;4.13;3.73;;;8.60;1.00;;;;;;5116018;28;20262;-43
2023/12/29 07:39:58;;;;;;;4.50;4.10;;;8.50;1.00;;;;;;5114860;28;20439;-42
2023/12/29 07:42:23;;;;;;;4.10;3.70;;;8.60;1.00;;;;;;5115193;28;20271;-42
2023/12/29 07:44:49;;;;;;;3.93;3.53;;;8.60;1.00;;;;;;5115399;28;20192;-44
2023/12/29 07:47:14;;;;;;;4.50;4.10;;;8.60;1.00;;;;;;5118509;28;20198;-41
2023/12/29 07:49:42;;;;;;;4.80;4.40;;;8.60;1.00;;;;;;5118387;28;20222;-41
2023/12/29 07:52:08;;;;;;;6.03;4.20;;;8.60;1.00;;;;;;5116866;28;20304;-44
2023/12/29 07:54:33;;;;;;;3.70;3.40;;;8.60;1.00;;;;;;5117858;27;20421;-44
2023/12/29 07:56:59;;;;;;;4.60;3.97;;;8.60;1.00;;;;;;5117778;28;20497;-41
2023/12/29 07:59:24;;;;;;;3.53;3.23;;;8.60;1.00;;;;;;5118952;28;20282;-44
2023/12/29 08:01:50;;;;;;;4.20;3.80;;;8.70;1.00;;;;;;5116372;28;20278;-43
2023/12/29 08:04:16;;;;;;;3.80;3.50;;;8.70;1.00;;;;;;5117596;28;20271;-43
2023/12/29 08:06:41;;;;;;;4.27;3.87;;;8.70;1.00;;;;;;5116764;28;20180;-44
2023/12/29 08:09:07;;;;;;;5.80;3.73;;;8.70;1.00;;;;;;5118041;28;20211;-46
2023/12/29 08:11:33;;;;;;;5.97;4.20;;;8.70;1.00;;;;;;5119705;28;20183;-47
2023/12/29 08:13:58;;;;;;;7.20;5.60;;;8.70;1.00;;;;;;5117511;28;20911;-42
2023/12/29 08:16:24;;;;;;;3.83;3.53;;;8.70;1.00;;;;;;5118104;28;20494;-41
2023/12/29 08:18:50;;;;;;;5.30;4.20;;;8.70;1.00;;;;;;5118298;28;20214;-45
2023/12/29 08:21:19;;;;;;;4.00;3.60;;;8.80;1.00;;;;;;5118998;28;20225;-42
2023/12/29 08:23:49;;;;;;;8.33;4.77;;;8.80;1.00;;;;;;5117880;28;20222;-44
2023/12/29 08:26:15;;;;;;;4.73;4.33;;;8.80;1.00;;;;;;5115763;28;20464;-42
2023/12/29 08:28:40;;;;;;;5.10;4.60;;;8.90;1.00;;;;;;5117503;28;20465;-41
2023/12/29 08:31:07;;;;;;;4.23;3.83;;;8.90;1.00;;;;;;5117356;28;20688;-43
2023/12/29 08:33:33;;;;;;;5.10;4.60;;;8.90;1.00;;;;;;5119314;28;20172;-41
2023/12/29 08:36:01;;;;;;;5.87;5.00;;;9.00;1.00;;;;;;5118221;28;20410;-42
2023/12/29 08:38:27;;;;;;;5.00;4.50;;;8.90;1.00;;;;;;5117321;28;20176;-43
2023/12/29 08:40:53;;;;;;;4.60;4.10;;;9.00;1.00;;;;;;5116186;28;20436;-42
2023/12/29 08:43:21;;;;;;;4.53;3.97;;;9.10;1.00;;;;;;5115608;28;20422;-43
2023/12/29 08:45:47;;;;;;;3.50;3.00;;;9.00;1.00;;;;;;5116331;28;20171;-42
2023/12/29 08:48:13;;;;;;;3.53;3.20;;;9.20;1.00;;;;;;5115482;28;20653;-42
2023/12/29 08:50:38;;;;;;;4.00;3.60;;;9.10;1.00;;;;;;5114281;28;20461;-42
2023/12/29 08:53:04;;;;;;;4.10;3.60;;;9.10;1.00;;;;;;5114736;28;20742;-43
2023/12/29 08:55:31;;;;;;;5.17;3.77;;;9.00;1.00;;;;;;5098279;28;20184;-43
2023/12/29 08:57:57;;;;;;;3.60;3.30;;;9.00;1.00;;;;;;5114894;28;20383;-42
2023/12/29 09:00:23;;;;;;;4.17;3.80;;;9.00;1.00;;;;;;5097611;28;20425;-42
2023/12/29 09:02:49;;;;;;;3.70;3.40;;;9.00;1.00;;;;;;5116247;28;20476;-45
2023/12/29 09:05:14;;;;;;;3.87;3.20;;;9.00;1.00;;;;;;5116583;28;20191;-42
2023/12/29 09:07:41;;;;;;;4.10;3.70;;;8.90;1.00;;;;;;5115001;28;20194;-41
2023/12/29 09:10:08;;;;;;;6.10;3.63;;;8.90;1.00;;;;;;5115318;27;20473;-41
2023/12/29 09:12:34;;;;;;;3.90;3.47;;;8.90;1.00;;;;;;5117236;28;20419;-44
2023/12/29 09:15:01;;;;;;;3.47;3.17;;;9.10;1.00;;;;;;5117069;28;20528;-41
2023/12/29 09:17:26;;;;;;;4.17;3.47;;;9.20;1.00;;;;;;5118050;28;20449;-42
2023/12/29 09:19:52;;;;;;;4.33;3.33;;;9.30;1.00;;;;;;5117734;28;20188;-41
2023/12/29 09:22:17;;;;;;;3.20;2.90;;;9.30;1.00;;;;;;5117639;28;20179;-41
2023/12/29 09:24:43;;;;;;;4.20;3.73;;;9.30;1.00;;;;;;5117157;28;20525;-46
2023/12/29 09:27:08;;;;;;;4.07;3.67;;;9.30;1.00;;;;;;5115377;28;20180;-43
2023/12/29 09:29:34;;;;;;;3.43;3.13;;;9.30;1.00;;;;;;5114824;28;20616;-45
2023/12/29 09:32:00;;;;;;;3.70;3.30;;;9.40;1.00;;;;;;5114475;28;20692;-43
2023/12/29 09:34:25;;;;;;;4.53;4.13;;;9.40;1.00;;;;;;5115505;28;20175;-45
2023/12/29 09:36:51;;;;;;;3.87;3.57;;;9.50;1.00;;;;;;5115622;28;20179;-44
2023/12/29 09:39:16;;;;;;;3.13;2.83;;;9.60;1.00;;;;;;5113120;28;20183;-45
2023/12/29 09:41:45;;;;;;;3.23;2.93;;;9.70;1.00;;;;;;5115001;28;20179;-42
2023/12/29 09:44:15;;;;;;;3.47;2.90;;;9.70;1.00;;;;;;5115565;28;20579;-46
2023/12/29 09:46:42;;;;;;;3.33;3.03;;;10.00;1.00;;;;;;5114950;28;20830;-43
2023/12/29 09:49:08;;;;;;;4.93;2.83;;;9.90;1.00;;;;;;5115530;28;20495;-44
2023/12/29 09:51:36;;;;;;;3.23;2.90;;;9.90;1.00;;;;;;5115321;28;20476;-45
2023/12/29 09:54:02;;;;;;;5.13;3.00;;;9.90;99.90;;;;;;5115013;28;20421;-43
2023/12/29 09:56:28;;;;;;;6.27;3.20;;;9.90;99.90;;;;;;5115770;28;20428;-44
2023/12/29 09:58:54;;;;;;;4.70;3.43;;;9.90;99.90;;;;;;5114903;28;20771;-44
2023/12/29 10:01:21;;;;;;;3.30;3.00;;;9.90;99.90;;;;;;5099056;28;20248;-43
2023/12/29 10:03:48;;;;;;;4.37;3.63;;;10.00;99.90;;;;;;5115565;28;20422;-46
2023/12/29 10:06:17;;;;;;;3.43;3.13;;;10.30;1.00;;;;;;5116465;28;20425;-47
2023/12/29 10:08:46;;;;;;;2.97;2.43;;;10.50;99.90;;;;;;5114052;28;20469;-46
2023/12/29 10:11:12;;;;;;;2.47;2.27;;;11.30;99.90;;;;;;5116026;28;20433;-46
2023/12/29 10:13:38;;;;;;;2.93;2.17;;;11.70;99.90;;;;;;5114757;28;20555;-45
2023/12/29 10:16:19;;;;;;;2.47;1.60;;;11.80;1.00;;;;;;5114935;28;20482;-44
2023/12/29 10:18:50;;;;;;;1.83;1.70;;;12.10;1.00;;;;;;5115750;28;20420;-43
2023/12/29 10:21:29;;;;;;;2.17;1.97;;;12.20;1.00;;;;;;5114278;28;20826;-43
2023/12/29 10:24:23;;;;;;;2.37;2.17;;;12.60;1.00;;;;;;5114472;28;20417;-44
2023/12/29 10:26:53;;;;;;;3.17;1.80;;;12.10;99.90;;;;;;5117088;28;20433;-41
2023/12/29 10:29:20;;;;;;;2.23;1.50;;;12.30;99.90;;;;;;5115512;28;20473;-47
2023/12/29 10:31:46;;;;;;;2.20;2.00;;;12.30;1.00;;;;;;5113278;28;20429;-41
2023/12/29 10:34:31;;;;;;;2.17;1.97;;;11.90;99.90;;;;;;5114502;28;20498;-43
2023/12/29 10:36:58;;;;;;;2.00;1.80;;;12.20;1.00;;;;;;5115661;28;20171;-45
2023/12/29 10:39:25;;;;;;;3.50;2.20;;;12.60;99.90;;;;;;5098207;28;20505;-44
2023/12/29 10:42:05;;;;;;;2.40;2.20;;;13.20;1.00;;;;;;5114347;28;20433;-42
2023/12/29 10:44:32;;;;;;;2.33;2.13;;;13.70;99.90;;;;;;5116049;28;20649;-45
2023/12/29 10:46:57;;;;;;;2.10;1.90;;;14.10;1.00;;;;;;5115764;28;20452;-43
2023/12/29 10:49:23;;;;;;;1.43;1.33;;;14.40;99.90;;;;;;5115847;28;20492;-43
2023/12/29 10:51:50;;;;;;;2.20;2.00;;;14.60;1.00;;;;;;5113380;28;20560;-47
2023/12/29 10:54:23;;;;;;;1.60;1.50;;;15.00;99.90;;;;;;5093332;28;20157;-47
2023/12/29 10:57:02;;;;;;;1.70;1.53;;;15.30;99.90;;;;;;5095479;28;20457;-43
2023/12/29 10:59:28;;;;;;;2.33;1.87;;;15.60;1.00;;;;;;5092916;28;21035;-44
2023/12/29 11:01:53;;;;;;;2.23;1.70;;;15.90;99.90;;;;;;5091955;28;20434;-45
2023/12/29 11:04:22;;;;;;;1.87;1.63;;;16.20;99.90;;;;;;5091878;28;20180;-42
2023/12/29 11:06:48;;;;;;;1.43;1.20;;;16.00;99.90;;;;;;5092364;28;20183;-42
2023/12/29 11:09:14;;;;;;;2.93;1.60;;;16.10;99.90;;;;;;5094012;28;20536;-44
2023/12/29 11:11:39;;;;;;;1.57;1.40;;;16.40;99.90;;;;;;5093755;28;20422;-41
2023/12/29 11:14:05;;;;;;;3.03;1.30;;;17.00;62.10;;;;;;5095053;28;20240;-42
2023/12/29 11:16:32;;;;;;;1.60;1.30;;;16.60;19.00;;;;;;5095275;28;20179;-42
2023/12/29 11:18:58;;;;;;;2.33;1.60;;;17.10;1.00;;;;;;5093505;28;20188;-42
2023/12/29 11:21:26;;;;;;;1.80;1.47;;;17.40;1.00;;;;;;5096240;28;20475;-43
2023/12/29 11:23:52;;;;;;;1.40;1.30;;;17.80;1.00;;;;;;5099086;28;20548;-45
2023/12/29 11:26:18;;;;;;;1.60;1.30;;;18.00;1.00;;;;;;5099961;28;20422;-48
2023/12/29 11:28:46;;;;;;;3.40;1.67;;;17.20;1.00;;;;;;5099422;28;20208;-40
2023/12/29 11:31:12;;;;;;;2.20;1.53;;;17.10;1.00;;;;;;5098435;28;20445;-44
2023/12/29 11:33:46;;;;;;;1.87;1.53;;;16.90;1.00;;;;;;5099323;28;20406;-45
2023/12/29 11:36:22;;;;;;;1.97;1.60;;;16.80;1.00;;;;;;5095861;28;20542;-42
2023/12/29 11:38:49;;;;;;;1.63;1.50;;;16.50;1.00;;;;;;5095733;28;20720;-44
2023/12/29 11:41:49;;;;;;;1.73;1.50;;;16.80;1.00;;;;;;5097427;28;20418;-43
2023/12/29 11:44:26;;;;;;;1.43;1.33;;;16.80;1.00;;;;;;5097690;28;20501;-47
2023/12/29 11:46:52;;;;;;;2.43;1.60;;;16.20;1.00;;;;;;5096659;28;20425;-44
2023/12/29 11:49:18;;;;;;;1.90;1.70;;;16.50;1.00;;;;;;5097145;28;20465;-43
2023/12/29 11:51:48;;;;;;;1.83;1.57;;;16.70;1.00;;;;;;5096391;28;20481;-43
2023/12/29 11:54:26;;;;;;;2.40;1.80;;;16.80;1.00;;;;;;5096863;28;20700;-43
2023/12/29 11:56:55;;;;;;;4.57;4.23;;;17.10;1.00;;;;;;5079556;28;20435;-46
2023/12/29 11:59:22;;;;;;;1.93;1.73;;;16.80;1.00;;;;;;5098636;28;20465;-43
2023/12/29 12:02:00;;;;;;;3.93;1.50;;;17.40;1.00;;;;;;5097136;28;20510;-43
2023/12/29 12:04:40;;;;;;;1.30;1.20;;;18.10;1.00;;;;;;5095685;28;20469;-46
2023/12/29 12:07:07;;;;;;;3.63;3.00;;;17.30;1.00;;;;;;5096471;28;20836;-46
2023/12/29 12:09:34;;;;;;;3.57;2.80;;;17.30;1.00;;;;;;5095201;28;20832;-44
2023/12/29 12:12:04;;;;;;;3.47;2.50;;;16.90;1.00;;;;;;5093397;28;20472;-45
2023/12/29 12:14:49;;;;;;;2.10;1.90;;;16.90;1.00;;;;;;5093739;28;20433;-45
2023/12/29 12:17:28;;;;;;;2.47;1.70;;;16.60;1.00;;;;;;5095337;28;20425;-43
2023/12/29 12:19:58;;;;;;;1.80;1.20;;;15.80;1.00;;;;;;5094345;28;20537;-43
2023/12/29 12:22:26;;;;;;;1.87;1.67;;;15.70;1.00;;;;;;5095292;28;20418;-42
2023/12/29 12:24:57;;;;;;;3.20;1.93;;;15.60;1.00;;;;;;5093141;28;20441;-41
2023/12/29 12:27:25;;;;;;;3.90;3.60;;;16.40;1.00;;;;;;5095451;28;20418;-45
2023/12/29 12:29:55;;;;;;;2.30;1.67;;;17.30;1.00;;;;;;5095555;28;20477;-41
2023/12/29 12:32:21;;;;;;;2.27;1.30;;;16.80;1.00;;;;;;5095518;28;20437;-44
2023/12/29 12:34:47;;;;;;;1.80;1.50;;;16.60;1.00;;;;;;5096425;28;20820;-43
2023/12/29 12:37:18;;;;;;;2.30;1.63;;;16.40;1.00;;;;;;5095655;28;20427;-42
2023/12/29 12:39:43;;;;;;;1.77;1.40;;;16.10;1.00;;;;;;5094791;28;20179;-45
2023/12/29 12:42:09;;;;;;;2.80;1.47;;;15.70;1.00;;;;;;5095033;28;20422;-42
2023/12/29 12:44:35;;;;;;;2.10;1.70;;;16.10;1.00;;;;;;5095311;28;20224;-42
2023/12/29 12:47:06;;;;;;;1.60;1.30;;;16.50;1.00;;;;;;5093809;28;20184;-43
2023/12/29 12:49:32;;;;;;;1.70;1.60;;;16.90;1.00;;;;;;5094613;28;20201;-44
2023/12/29 12:51:58;;;;;;;1.87;1.60;;;17.20;1.00;;;;;;5094473;28;20886;-48
2023/12/29 12:54:23;;;;;;;3.00;1.70;;;17.60;1.00;;;;;;5078835;28;20173;-47
2023/12/29 12:56:49;;;;;;;2.20;1.53;;;17.20;1.00;;;;;;5095883;28;20215;-45
2023/12/29 12:59:16;;;;;;;1.53;1.13;;;17.20;1.00;;;;;;5095754;28;20452;-47
2023/12/29 13:01:42;;;;;;;1.10;1.00;;;17.00;1.00;;;;;;5096519;28;20541;-49